Minerva Concert — SVWC — position and weather

sailwx.info

Track history (hours):
 
Tides and Currents Weather Stations Pressure Air Temp Water Temp Dewpoint Dewpoint Depression Visibility Wind Speed Wind Dir Waves Ship Positions

Minerva Concert

Last reported at 2014-Aug-02 08:33 UTC. Time now 2014-Aug-02 08:45 UTC.
Position N 55°10' E 014°03'.

Length 241 m; draft 7 m.

Type: Tanker. MMSI: 240110000.

Date/timePositionNaut miles runAvg speedWind from/ knotsBaromVisibWave heightAir tempDewpointWater temp
2014-Aug-02 08:33N 55°10' E 014°03'9 9.0
2014-Aug-02 07:33N 55°11' E 013°47'9 9.4
2014-Aug-02 06:33N 55°12' E 013°31'9 9.3
2014-Aug-02 05:33N 55°12' E 013°15'9 9.3
2014-Aug-02 04:33N 55°13' E 012°58'9 9.0
2014-Aug-02 03:33N 55°17' E 012°44'7 7.0
2014-Aug-02 02:33N 55°23' E 012°39'9 9.0
2014-Aug-02 01:33N 55°32' E 012°42'9 9.0
2014-Aug-02 00:33N 55°41' E 012°41'1110.8
2014-Aug-01 23:33N 55°52' E 012°40'1010.4
2014-Aug-01 22:33N 56°02' E 012°38'9 9.4
2014-Aug-01 21:33N 56°09' E 012°27'9 9.0
2014-Aug-01 20:33N 56°14' E 012°13'8 8.5
2014-Aug-01 19:33N 56°20' E 012°03'9 9.4
2014-Aug-01 18:33N 56°29' E 011°59'10 9.5
2014-Aug-01 17:33N 56°38' E 011°55'10 9.4
2014-Aug-01 16:31N 56°48' E 011°51'9 9.4
2014-Aug-01 15:33N 56°56' E 011°45'10 9.1
2014-Aug-01 14:30N 57°05' E 011°39'9 9.6
2014-Aug-01 13:33N 57°14' E 011°33'1010.4
2014-Aug-01 12:33N 57°24' E 011°27'1010.1
2014-Aug-01 11:33N 57°31' E 011°15'1010.0
2014-Aug-01 10:33N 57°39' E 011°02'1010.5
2014-Aug-01 09:33N 57°46' E 010°48'1111.0
2014-Aug-01 08:33N 57°50' E 010°29'1111.0
2014-Aug-01 07:33N 57°52' E 010°09'4 2.2
2014-Aug-01 05:28N 57°52' E 010°00'0 0.0
2014-Aug-01 01:28N 57°52' E 010°00'0 0.0
2014-Aug-01 00:25N 57°52' E 010°00'0 0.0
2014-Jul-31 21:28N 57°52' E 010°00'0 0.0
2014-Jul-31 04:10N 57°52' E 010°00'0 0.0
2014-Jul-31 03:28N 57°52' E 010°00'0 0.0
2014-Jul-31 00:07N 57°52' E 010°00'0 0.0
2014-Jul-30 23:31N 57°52' E 010°00'1 0.1
2014-Jul-30 16:33N 57°52' E 010°01'5 5.1
2014-Jul-30 15:33N 57°47' E 010°05'218 9.4
2014-Jul-29 16:26N 55°01' E 005°52'9 9.6
2014-Jul-29 15:32N 54°53' E 005°47'9 9.6
2014-Jul-29 14:33N 54°44' E 005°42'11 9.6
2014-Jul-29 13:26N 54°34' E 005°36'9 9.7
2014-Jul-29 12:33N 54°27' E 005°26'10 9.8
2014-Jul-29 11:30N 54°19' E 005°14'1010.1
2014-Jul-29 10:32N 54°12' E 005°03'1010.2
2014-Jul-29 09:33N 54°05' E 004°52'1010.1
2014-Jul-29 08:33N 53°57' E 004°41'1010.0
2014-Jul-29 07:32N 53°50' E 004°28'1110.0
2014-Jul-29 06:28N 53°43' E 004°14'1210.3
2014-Jul-29 05:16N 53°36' E 003°58'98 4.2
2014-Jul-28 06:06N 52°07' E 002°46'0 0.2
2014-Jul-28 05:09N 52°08' E 002°46'0 0.1
2014-Jul-28 04:33N 52°08' E 002°46'0 0.1
2014-Jul-28 03:33N 52°08' E 002°46'0 0.0
2014-Jul-28 02:33N 52°08' E 002°46'0 0.1
2014-Jul-28 01:12N 52°07' E 002°46'0 0.1
2014-Jul-27 23:24N 52°07' E 002°46'0 0.0
2014-Jul-27 22:24N 52°07' E 002°46'0 0.0
2014-Jul-27 21:27N 52°07' E 002°46'0 0.0
2014-Jul-27 20:33N 52°07' E 002°46'0 0.0
2014-Jul-27 19:33N 52°07' E 002°46'0 0.0
2014-Jul-27 18:33N 52°07' E 002°46'0 0.2
2014-Jul-27 17:33N 52°08' E 002°46'0 0.0
2014-Jul-27 16:30N 52°08' E 002°46'0 0.1
2014-Jul-27 13:06N 52°07' E 002°46'0 0.1
2014-Jul-27 10:21N 52°07' E 002°46'0 0.0
2014-Jul-27 09:30N 52°07' E 002°46'0 0.0
2014-Jul-27 08:24N 52°07' E 002°46'0 0.0
2014-Jul-27 07:30N 52°07' E 002°46'0 0.3
2014-Jul-27 06:33N 52°08' E 002°46'5 4.6
2014-Jul-27 05:33N 52°08' E 002°54'9 9.2
2014-Jul-27 04:33N 52°03' E 003°06'9 9.4
2014-Jul-27 03:33N 52°03' E 003°22'10 9.6
2014-Jul-27 02:33N 52°03' E 003°37'9 9.3
2014-Jul-27 01:33N 52°02' E 003°52'6 5.7
2014-Jul-27 00:33N 52°00' E 004°01'8 8.4
2014-Jul-26 23:34N 51°56' E 004°12'0 0.4
2014-Jul-26 22:33N 51°55' E 004°12'0 0.0
2014-Jul-26 21:30N 51°55' E 004°12'0 0.0
2014-Jul-26 20:29N 51°55' E 004°12'0 0.0
2014-Jul-26 19:33N 51°55' E 004°12'0 0.0
2014-Jul-26 18:33N 51°55' E 004°12'0 0.0
2014-Jul-26 17:24N 51°55' E 004°12'0 0.0
2014-Jul-26 16:33N 51°55' E 004°12'0 0.0
2014-Jul-26 15:30N 51°55' E 004°12'0 0.0
2014-Jul-26 14:30N 51°55' E 004°12'0 0.0
2014-Jul-26 13:30N 51°55' E 004°12'0 0.0
2014-Jul-26 12:24N 51°55' E 004°12'0 0.0
2014-Jul-26 11:15N 51°55' E 004°12'0 0.0
2014-Jul-26 10:30N 51°55' E 004°12'0 0.0
2014-Jul-26 09:30N 51°55' E 004°12'0 0.0
2014-Jul-26 08:33N 51°55' E 004°12'0 0.0
2014-Jul-26 07:32N 51°55' E 004°12'0 0.0
2014-Jul-26 06:30N 51°55' E 004°12'0 0.0
2014-Jul-26 05:18N 51°55' E 004°12'0 0.0
2014-Jul-26 04:30N 51°55' E 004°12'0 0.0
2014-Jul-26 03:30N 51°55' E 004°12'0 0.0
2014-Jul-26 02:24N 51°55' E 004°12'0 0.0
2014-Jul-26 01:33N 51°55' E 004°12'0 0.0
2014-Jul-26 00:18N 51°55' E 004°12'0 0.0
2014-Jul-25 23:23N 51°55' E 004°12'0 0.0
2014-Jul-25 22:12N 51°55' E 004°12'0 0.0
2014-Jul-25 21:24N 51°55' E 004°12'0 0.0
2014-Jul-25 20:30N 51°55' E 004°12'0 0.0
2014-Jul-25 19:12N 51°55' E 004°12'0 0.0
2014-Jul-25 18:12N 51°55' E 004°12'0 0.2
2014-Jul-25 17:33N 51°55' E 004°12'3 2.8
2014-Jul-25 16:33N 51°57' E 004°09'8 8.3
2014-Jul-25 15:33N 52°01' E 003°57'9 8.8
2014-Jul-25 14:33N 52°01' E 003°42'10 9.9
2014-Jul-25 13:33N 51°59' E 003°26'1111.2
2014-Jul-25 12:33N 51°54' E 003°10'1414.1
2014-Jul-25 11:33N 51°53' E 002°48'1211.6
2014-Jul-25 10:33N 52°03' E 002°38'1413.8
2014-Jul-25 09:34N 52°16' E 002°43'1514.5
2014-Jul-25 08:33N 52°29' E 002°54'1514.9
2014-Jul-25 07:33N 52°43' E 003°05'1714.6
2014-Jul-25 06:24N 52°58' E 003°17'1213.9
2014-Jul-25 05:33N 53°09' E 003°23'1313.2
2014-Jul-25 04:33N 53°22' E 003°30'1312.8
2014-Jul-25 03:33N 53°34' E 003°36'1212.3
2014-Jul-25 02:33N 53°46' E 003°43'1413.5
2014-Jul-25 01:33N 53°53' E 004°02'1313.5
2014-Jul-25 00:33N 54°03' E 004°17'1413.9
2014-Jul-24 23:33N 54°15' E 004°29'1413.8
2014-Jul-24 22:33N 54°27' E 004°41'1413.6
2014-Jul-24 21:33N 54°39' E 004°53'1413.6
2014-Jul-24 20:33N 54°51' E 005°05'1413.5
2014-Jul-24 19:33N 55°03' E 005°16'1313.6
2014-Jul-24 18:33N 55°14' E 005°28'4113.6
2014-Jul-24 15:33N 55°50' E 006°04'6813.6
2014-Jul-24 10:33N 56°48' E 007°05'1513.6
2014-Jul-24 09:28N 56°60' E 007°22'5312.9
2014-Jul-24 05:21N 57°31' E 008°42'1013.0
2014-Jul-24 04:33N 57°37' E 008°58'1212.3
2014-Jul-24 03:33N 57°42' E 009°18'1412.9
2014-Jul-24 02:31N 57°46' E 009°43'1413.0
2014-Jul-24 01:28N 57°49' E 010°07'1213.1
2014-Jul-24 00:33N 57°49' E 010°30'1111.2
2014-Jul-23 23:33N 57°46' E 010°50'1010.4
2014-Jul-23 22:33N 57°39' E 011°04'1313.0
2014-Jul-23 21:33N 57°30' E 011°22'1312.5
2014-Jul-23 20:33N 57°19' E 011°31'1312.5
2014-Jul-23 19:33N 57°07' E 011°39'1212.4
2014-Jul-23 18:33N 56°55' E 011°47'1211.5
2014-Jul-23 17:33N 56°44' E 011°52'1211.6
2014-Jul-23 16:31N 56°34' E 011°42'1212.0
2014-Jul-23 15:33N 56°24' E 011°30'1312.6
2014-Jul-23 14:33N 56°13' E 011°19'1313.0
2014-Jul-23 13:32N 56°02' E 011°06'1412.6
2014-Jul-23 12:28N 55°53' E 010°49'1212.9
2014-Jul-23 11:33N 55°41' E 010°48'  
Track history (hours):
 
Tides and Currents Weather Stations Pressure Air Temp Water Temp Dewpoint Dewpoint Depression Visibility Wind Speed Wind Dir Waves Ship Positions

Minerva Concert

Last reported at 2014-Aug-02 08:33 UTC. Time now 2014-Aug-02 08:45 UTC.
Position N 55°10' E 014°03'.

Length 241 m; draft 7 m.

Type: Tanker. MMSI: 240110000.

Date/timePositionNaut miles runAvg speedWind from/ knotsBaromVisibWave heightAir tempDewpointWater temp
2014-Aug-02 08:33N 55°10' E 014°03'9 9.0
2014-Aug-02 07:33N 55°11' E 013°47'9 9.4
2014-Aug-02 06:33N 55°12' E 013°31'9 9.3
2014-Aug-02 05:33N 55°12' E 013°15'9 9.3
2014-Aug-02 04:33N 55°13' E 012°58'9 9.0
2014-Aug-02 03:33N 55°17' E 012°44'7 7.0
2014-Aug-02 02:33N 55°23' E 012°39'9 9.0
2014-Aug-02 01:33N 55°32' E 012°42'9 9.0
2014-Aug-02 00:33N 55°41' E 012°41'1110.8
2014-Aug-01 23:33N 55°52' E 012°40'1010.4
2014-Aug-01 22:33N 56°02' E 012°38'9 9.4
2014-Aug-01 21:33N 56°09' E 012°27'9 9.0
2014-Aug-01 20:33N 56°14' E 012°13'8 8.5
2014-Aug-01 19:33N 56°20' E 012°03'9 9.4
2014-Aug-01 18:33N 56°29' E 011°59'10 9.5
2014-Aug-01 17:33N 56°38' E 011°55'10 9.4
2014-Aug-01 16:31N 56°48' E 011°51'9 9.4
2014-Aug-01 15:33N 56°56' E 011°45'10 9.1
2014-Aug-01 14:30N 57°05' E 011°39'9 9.6
2014-Aug-01 13:33N 57°14' E 011°33'1010.4
2014-Aug-01 12:33N 57°24' E 011°27'1010.1
2014-Aug-01 11:33N 57°31' E 011°15'1010.0
2014-Aug-01 10:33N 57°39' E 011°02'1010.5
2014-Aug-01 09:33N 57°46' E 010°48'1111.0
2014-Aug-01 08:33N 57°50' E 010°29'1111.0
2014-Aug-01 07:33N 57°52' E 010°09'4 2.2
2014-Aug-01 05:28N 57°52' E 010°00'0 0.0
2014-Aug-01 01:28N 57°52' E 010°00'0 0.0
2014-Aug-01 00:25N 57°52' E 010°00'0 0.0
2014-Jul-31 21:28N 57°52' E 010°00'0 0.0
2014-Jul-31 04:10N 57°52' E 010°00'0 0.0
2014-Jul-31 03:28N 57°52' E 010°00'0 0.0
2014-Jul-31 00:07N 57°52' E 010°00'0 0.0
2014-Jul-30 23:31N 57°52' E 010°00'1 0.1
2014-Jul-30 16:33N 57°52' E 010°01'5 5.1
2014-Jul-30 15:33N 57°47' E 010°05'218 9.4
2014-Jul-29 16:26N 55°01' E 005°52'9 9.6
2014-Jul-29 15:32N 54°53' E 005°47'9 9.6
2014-Jul-29 14:33N 54°44' E 005°42'11 9.6
2014-Jul-29 13:26N 54°34' E 005°36'9 9.7
2014-Jul-29 12:33N 54°27' E 005°26'10 9.8
2014-Jul-29 11:30N 54°19' E 005°14'1010.1
2014-Jul-29 10:32N 54°12' E 005°03'1010.2
2014-Jul-29 09:33N 54°05' E 004°52'1010.1
2014-Jul-29 08:33N 53°57' E 004°41'1010.0
2014-Jul-29 07:32N 53°50' E 004°28'1110.0
2014-Jul-29 06:28N 53°43' E 004°14'1210.3
2014-Jul-29 05:16N 53°36' E 003°58'98 4.2
2014-Jul-28 06:06N 52°07' E 002°46'0 0.2
2014-Jul-28 05:09N 52°08' E 002°46'0 0.1
2014-Jul-28 04:33N 52°08' E 002°46'0 0.1
2014-Jul-28 03:33N 52°08' E 002°46'0 0.0
2014-Jul-28 02:33N 52°08' E 002°46'0 0.1
2014-Jul-28 01:12N 52°07' E 002°46'0 0.1
2014-Jul-27 23:24N 52°07' E 002°46'0 0.0
2014-Jul-27 22:24N 52°07' E 002°46'0 0.0
2014-Jul-27 21:27N 52°07' E 002°46'0 0.0
2014-Jul-27 20:33N 52°07' E 002°46'0 0.0
2014-Jul-27 19:33N 52°07' E 002°46'0 0.0
2014-Jul-27 18:33N 52°07' E 002°46'0 0.2
2014-Jul-27 17:33N 52°08' E 002°46'0 0.0
2014-Jul-27 16:30N 52°08' E 002°46'0 0.1
2014-Jul-27 13:06N 52°07' E 002°46'0 0.1
2014-Jul-27 10:21N 52°07' E 002°46'0 0.0
2014-Jul-27 09:30N 52°07' E 002°46'0 0.0
2014-Jul-27 08:24N 52°07' E 002°46'0 0.0
2014-Jul-27 07:30N 52°07' E 002°46'0 0.3
2014-Jul-27 06:33N 52°08' E 002°46'5 4.6
2014-Jul-27 05:33N 52°08' E 002°54'9 9.2
2014-Jul-27 04:33N 52°03' E 003°06'9 9.4
2014-Jul-27 03:33N 52°03' E 003°22'10 9.6
2014-Jul-27 02:33N 52°03' E 003°37'9 9.3
2014-Jul-27 01:33N 52°02' E 003°52'6 5.7
2014-Jul-27 00:33N 52°00' E 004°01'8 8.4
2014-Jul-26 23:34N 51°56' E 004°12'0 0.4
2014-Jul-26 22:33N 51°55' E 004°12'0 0.0
2014-Jul-26 21:30N 51°55' E 004°12'0 0.0
2014-Jul-26 20:29N 51°55' E 004°12'0 0.0
2014-Jul-26 19:33N 51°55' E 004°12'0 0.0
2014-Jul-26 18:33N 51°55' E 004°12'0 0.0
2014-Jul-26 17:24N 51°55' E 004°12'0 0.0
2014-Jul-26 16:33N 51°55' E 004°12'0 0.0
2014-Jul-26 15:30N 51°55' E 004°12'0 0.0
2014-Jul-26 14:30N 51°55' E 004°12'0 0.0
2014-Jul-26 13:30N 51°55' E 004°12'0 0.0
2014-Jul-26 12:24N 51°55' E 004°12'0 0.0
2014-Jul-26 11:15N 51°55' E 004°12'0 0.0
2014-Jul-26 10:30N 51°55' E 004°12'0 0.0
2014-Jul-26 09:30N 51°55' E 004°12'0 0.0
2014-Jul-26 08:33N 51°55' E 004°12'0 0.0
2014-Jul-26 07:32N 51°55' E 004°12'0 0.0
2014-Jul-26 06:30N 51°55' E 004°12'0 0.0
2014-Jul-26 05:18N 51°55' E 004°12'0 0.0
2014-Jul-26 04:30N 51°55' E 004°12'0 0.0
2014-Jul-26 03:30N 51°55' E 004°12'0 0.0
2014-Jul-26 02:24N 51°55' E 004°12'0 0.0
2014-Jul-26 01:33N 51°55' E 004°12'0 0.0
2014-Jul-26 00:18N 51°55' E 004°12'0 0.0
2014-Jul-25 23:23N 51°55' E 004°12'0 0.0
2014-Jul-25 22:12N 51°55' E 004°12'0 0.0
2014-Jul-25 21:24N 51°55' E 004°12'0 0.0
2014-Jul-25 20:30N 51°55' E 004°12'0 0.0
2014-Jul-25 19:12N 51°55' E 004°12'0 0.0
2014-Jul-25 18:12N 51°55' E 004°12'0 0.2
2014-Jul-25 17:33N 51°55' E 004°12'3 2.8
2014-Jul-25 16:33N 51°57' E 004°09'8 8.3
2014-Jul-25 15:33N 52°01' E 003°57'9 8.8
2014-Jul-25 14:33N 52°01' E 003°42'10 9.9
2014-Jul-25 13:33N 51°59' E 003°26'1111.2
2014-Jul-25 12:33N 51°54' E 003°10'1414.1
2014-Jul-25 11:33N 51°53' E 002°48'1211.6
2014-Jul-25 10:33N 52°03' E 002°38'1413.8
2014-Jul-25 09:34N 52°16' E 002°43'1514.5
2014-Jul-25 08:33N 52°29' E 002°54'1514.9
2014-Jul-25 07:33N 52°43' E 003°05'1714.6
2014-Jul-25 06:24N 52°58' E 003°17'1213.9
2014-Jul-25 05:33N 53°09' E 003°23'1313.2
2014-Jul-25 04:33N 53°22' E 003°30'1312.8
2014-Jul-25 03:33N 53°34' E 003°36'1212.3
2014-Jul-25 02:33N 53°46' E 003°43'1413.5
2014-Jul-25 01:33N 53°53' E 004°02'1313.5
2014-Jul-25 00:33N 54°03' E 004°17'1413.9
2014-Jul-24 23:33N 54°15' E 004°29'1413.8
2014-Jul-24 22:33N 54°27' E 004°41'1413.6
2014-Jul-24 21:33N 54°39' E 004°53'1413.6
2014-Jul-24 20:33N 54°51' E 005°05'1413.5
2014-Jul-24 19:33N 55°03' E 005°16'1313.6
2014-Jul-24 18:33N 55°14' E 005°28'4113.6
2014-Jul-24 15:33N 55°50' E 006°04'6813.6
2014-Jul-24 10:33N 56°48' E 007°05'1513.6
2014-Jul-24 09:28N 56°60' E 007°22'5312.9
2014-Jul-24 05:21N 57°31' E 008°42'1013.0
2014-Jul-24 04:33N 57°37' E 008°58'1212.3
2014-Jul-24 03:33N 57°42' E 009°18'1412.9
2014-Jul-24 02:31N 57°46' E 009°43'1413.0
2014-Jul-24 01:28N 57°49' E 010°07'1213.1
2014-Jul-24 00:33N 57°49' E 010°30'1111.2
2014-Jul-23 23:33N 57°46' E 010°50'1010.4
2014-Jul-23 22:33N 57°39' E 011°04'1313.0
2014-Jul-23 21:33N 57°30' E 011°22'1312.5
2014-Jul-23 20:33N 57°19' E 011°31'1312.5
2014-Jul-23 19:33N 57°07' E 011°39'1212.4
2014-Jul-23 18:33N 56°55' E 011°47'1211.5
2014-Jul-23 17:33N 56°44' E 011°52'1211.6
2014-Jul-23 16:31N 56°34' E 011°42'1212.0
2014-Jul-23 15:33N 56°24' E 011°30'1312.6
2014-Jul-23 14:33N 56°13' E 011°19'1313.0
2014-Jul-23 13:32N 56°02' E 011°06'1412.6
2014-Jul-23 12:28N 55°53' E 010°49'1212.9
2014-Jul-23 11:33N 55°41' E 010°48'  

Dump ship's entire track history